Time;durP1;ratioP1;P1;durP2;ratioP2;P2;SDS_P1;SDS_P2;PMS_P1;PMS_P2;Temp;Humidity;BMP_temperature;BMP_pressure;BME280_temperature;BME280_humidity;BME280_pressure;Samples;Min_cycle;Max_cycle;Signal;HPM_P1;HPM_P2
2022/09/26 00:01:18;;;;;;;3.08;2.20;;;;;;;24.47;46.68;100170.81;4181377;28;20044;-63
2022/09/26 00:03:19;;;;;;;3.78;1.90;;;;;;;24.47;47.11;100168.00;4181412;28;20045;-63
2022/09/26 00:05:21;;;;;;;4.40;2.17;;;;;;;24.46;46.92;100171.09;4181550;28;20041;-63
2022/09/26 00:07:22;;;;;;;3.05;2.15;;;;;;;24.44;47.07;100160.25;4180944;28;20550;-63
2022/09/26 00:09:25;;;;;;;3.45;2.20;;;;;;;24.43;47.11;100166.19;4181679;28;20083;-63
2022/09/26 00:11:31;;;;;;;4.32;2.20;;;;;;;24.46;46.61;100162.72;4180876;28;20045;-63
2022/09/26 00:13:35;;;;;;;2.58;1.77;;;;;;;24.16;46.94;100109.31;4181540;28;20100;-63
2022/09/26 00:15:36;;;;;;;3.30;2.05;;;;;;;24.33;46.79;100136.50;4184385;28;20052;-62
2022/09/26 00:17:55;;;;;;;3.05;1.88;;;;;;;24.41;46.99;100155.28;4180621;28;20041;-63
2022/09/26 00:20:00;;;;;;;4.13;1.90;;;;;;;24.35;47.36;100160.19;4181176;28;20037;-63
2022/09/26 00:22:01;;;;;;;1.63;1.52;;;;;;;24.42;47.14;100173.75;4181044;28;20107;-63
2022/09/26 00:24:03;;;;;;;3.33;2.15;;;;;;;24.33;47.18;100156.91;4181234;28;20041;-63
2022/09/26 00:26:05;;;;;;;3.60;2.03;;;;;;;24.42;47.09;100176.53;4180448;28;20115;-63
2022/09/26 00:28:06;;;;;;;2.67;1.98;;;;;;;24.43;47.08;100174.56;4179700;28;20091;-62
2022/09/26 00:30:08;;;;;;;3.35;1.95;;;;;;;24.40;46.95;100175.19;4181293;28;20037;-63
2022/09/26 00:32:10;;;;;;;2.67;2.13;;;;;;;24.12;47.05;100130.66;4181190;28;20099;-63
2022/09/26 00:34:17;;;;;;;3.10;2.05;;;;;;;24.29;47.23;100141.09;4181353;28;20103;-63
2022/09/26 00:36:18;;;;;;;3.10;2.00;;;;;;;24.43;47.14;100171.78;4181352;28;20383;-63
2022/09/26 00:38:23;;;;;;;2.88;2.08;;;;;;;24.24;47.08;100132.84;4181207;28;20446;-63
2022/09/26 00:40:25;;;;;;;2.92;2.38;;;;;;;24.42;47.22;100170.94;4180366;28;20087;-63
2022/09/26 00:42:27;;;;;;;4.95;2.40;;;;;;;24.27;46.97;100157.34;4180482;28;20106;-63
2022/09/26 00:44:48;;;;;;;4.65;2.13;;;;;;;24.40;47.33;100181.63;4181118;28;20094;-63
2022/09/26 00:46:52;;;;;;;3.60;2.05;;;;;;;24.42;47.22;100179.34;4181257;28;20079;-63
2022/09/26 00:49:11;;;;;;;3.53;1.98;;;;;;;24.40;47.68;100178.81;4181187;28;20040;-63
2022/09/26 00:51:13;;;;;;;3.50;2.25;;;;;;;24.40;47.63;100176.03;4184641;28;20110;-63
2022/09/26 00:53:22;;;;;;;2.90;2.10;;;;;;;24.39;47.24;100179.97;4179944;28;20094;-62
2022/09/26 00:55:30;;;;;;;2.58;2.10;;;;;;;24.39;47.41;100179.16;4181026;28;20045;-63
2022/09/26 00:57:40;;;;;;;2.75;2.03;;;;;;;24.34;47.36;100169.72;4181004;28;20102;-63
2022/09/26 00:59:48;;;;;;;3.90;2.42;;;;;;;24.39;47.19;100170.75;4181066;28;20041;-63
2022/09/26 01:01:55;;;;;;;2.90;2.15;;;;;;;24.38;47.47;100171.91;4179979;28;20194;-63
2022/09/26 01:03:57;;;;;;;7.45;2.88;;;;;;;24.38;47.18;100183.09;4180930;28;20044;-63
2022/09/26 01:06:02;;;;;;;2.15;1.95;;;;;;;24.38;47.41;100183.94;4180945;28;20488;-63
2022/09/26 01:08:04;;;;;;;;;;;;;;;24.36;47.48;100191.75;4181049;28;20388;-63
2022/09/26 01:10:06;;;;;;;2.03;1.83;;;;;;;24.15;47.62;100135.59;4181252;28;20249;-63
2022/09/26 01:12:09;;;;;;;3.00;2.10;;;;;;;24.41;46.94;100174.06;4180226;28;20451;-63
2022/09/26 01:14:12;;;;;;;4.70;2.03;;;;;;;24.38;47.15;100171.91;4180957;28;20443;-63
2022/09/26 01:16:16;;;;;;;2.55;2.08;;;;;;;24.40;47.04;100180.78;4180408;28;20431;-63
2022/09/26 01:18:18;;;;;;;3.40;2.10;;;;;;;24.33;47.19;100170.88;4180222;28;20037;-63
2022/09/26 01:20:48;;;;;;;3.15;2.00;;;;;;;24.38;47.38;100183.09;4183956;28;20044;-63
2022/09/26 01:22:59;;;;;;;3.63;2.33;;;;;;;24.40;47.15;100180.78;4177516;28;20443;-63
2022/09/26 01:25:22;;;;;;;3.58;2.30;;;;;;;24.29;47.36;100177.44;4183987;28;20087;-63
2022/09/26 01:27:50;;;;;;;2.72;2.17;;;;;;;24.19;47.42;100158.97;4184138;28;20106;-63
2022/09/26 01:30:05;;;;;;;2.17;1.98;;;;;;;24.21;47.44;100155.84;4183834;28;20083;-63
2022/09/26 01:32:47;;;;;;;3.70;2.10;;;;;;;24.37;47.46;100181.44;4183753;28;20099;-63
2022/09/26 01:35:06;;;;;;;5.10;2.50;;;;;;;24.39;47.54;100184.75;4183992;28;20094;-62
2022/09/26 01:37:48;;;;;;;3.92;2.83;;;;;;;24.24;47.65;100166.41;4184170;28;20047;-63
2022/09/26 01:40:07;;;;;;;3.97;2.78;;;;;;;24.37;47.60;100184.22;4177151;28;20469;-63
2022/09/26 01:42:15;;;;;;;3.63;2.42;;;;;;;24.34;47.51;100194.06;4183168;28;20045;-63
2022/09/26 01:44:53;;;;;;;2.63;2.13;;;;;;;24.31;47.52;100189.94;4183559;28;20041;-63
2022/09/26 01:46:57;;;;;;;2.88;2.10;;;;;;;24.35;47.43;100196.53;4183781;28;20049;-63
2022/09/26 01:49:22;;;;;;;3.05;2.42;;;;;;;24.33;47.35;100192.44;4183911;28;20037;-63
2022/09/26 01:51:59;;;;;;;3.78;2.10;;;;;;;24.20;47.57;100183.00;4183598;28;20083;-63
2022/09/26 01:54:08;;;;;;;6.32;2.30;;;;;;;24.26;47.46;100192.88;4183302;28;20186;-63
2022/09/26 01:56:15;;;;;;;3.97;2.50;;;;;;;24.35;47.64;100212.50;4183148;28;20041;-63
2022/09/26 01:58:29;;;;;;;5.22;2.70;;;;;;;24.33;47.85;100212.81;4183734;28;20469;-62
2022/09/26 02:00:33;;;;;;;4.25;2.45;;;;;;;24.19;47.49;100195.31;4183325;28;20037;-63
2022/09/26 02:02:41;;;;;;;5.28;2.70;;;;;;;24.27;48.04;100222.47;4182893;28;20094;-63
2022/09/26 02:04:45;;;;;;;5.63;2.38;;;;;;;24.29;47.89;100239.78;4183160;28;20037;-63
2022/09/26 02:06:54;;;;;;;3.67;2.47;;;;;;;24.30;47.96;100260.97;4183064;28;20090;-63
2022/09/26 02:09:02;;;;;;;3.13;2.45;;;;;;;24.31;48.26;100337.31;4182875;28;20041;-64
2022/09/26 02:11:11;;;;;;;4.28;2.60;;;;;;;23.86;48.56;100274.97;4182996;28;20083;-64
2022/09/26 02:13:18;;;;;;;4.28;2.42;;;;;;;24.21;48.61;100329.19;4182784;28;20088;-64
2022/09/26 02:15:25;;;;;;;4.50;2.30;;;;;;;24.24;48.90;100334.97;4182982;28;20041;-64
2022/09/26 02:17:32;;;;;;;3.40;2.40;;;;;;;24.18;48.37;100327.00;4183483;28;20427;-63
2022/09/26 02:20:01;;;;;;;2.65;2.13;;;;;;;24.22;48.47;100359.59;4183363;28;20045;-64
2022/09/26 02:22:02;;;;;;;3.08;2.53;;;;;;;24.26;48.65;100359.81;4182457;28;20045;-63
2022/09/26 02:24:06;;;;;;;2.88;2.28;;;;;;;24.20;48.55;100359.09;4181744;28;20041;-64
2022/09/26 02:26:08;;;;;;;3.17;2.55;;;;;;;24.20;48.79;100367.50;4182071;28;20037;-64
2022/09/26 02:28:09;;;;;;;5.25;2.30;;;;;;;24.17;48.49;100356.94;4182867;28;20106;-64
2022/09/26 02:30:11;;;;;;;2.80;2.50;;;;;;;23.93;49.03;100314.50;4182846;28;20098;-64
2022/09/26 02:32:17;;;;;;;3.25;2.28;;;;;;;24.15;48.95;100370.41;4182504;28;20041;-63
2022/09/26 02:34:19;;;;;;;4.00;2.08;;;;;;;24.10;49.75;100378.94;4183145;28;20047;-64
2022/09/26 02:36:22;;;;;;;5.05;2.30;;;;;;;23.86;49.31;100336.44;4182852;28;20049;-62
2022/09/26 02:38:27;;;;;;;3.42;2.78;;;;;;;24.11;49.53;100369.41;4183092;28;20091;-62
2022/09/26 02:40:45;;;;;;;2.63;2.42;;;;;;;24.11;49.24;100352.63;4182861;28;20049;-62
2022/09/26 02:42:57;;;;;;;4.15;2.30;;;;;;;24.07;49.33;100346.84;4181901;28;20379;-62
2022/09/26 02:45:22;;;;;;;3.00;2.45;;;;;;;24.16;49.13;100346.09;4181954;28;20045;-62
2022/09/26 02:47:45;;;;;;;3.75;2.30;;;;;;;24.14;49.20;100342.75;4181956;28;20435;-62
2022/09/26 02:50:07;;;;;;;2.58;2.28;;;;;;;24.15;48.92;100355.63;4181788;28;20151;-63
2022/09/26 02:52:08;;;;;;;2.50;2.30;;;;;;;24.19;48.59;100351.88;4181235;28;20037;-62
2022/09/26 02:54:34;;;;;;;3.03;2.17;;;;;;;24.15;48.99;100358.41;4181916;28;20029;-62
2022/09/26 02:57:00;;;;;;;2.63;2.00;;;;;;;24.14;49.15;100384.69;4181372;28;20045;-62
2022/09/26 02:59:01;;;;;;;2.65;2.45;;;;;;;24.14;48.95;100405.09;4181813;28;20589;-62
2022/09/26 03:01:38;;;;;;;3.28;2.55;;;;;;;24.03;48.87;100381.31;4181839;28;20041;-61
2022/09/26 03:04:00;;;;;;;3.55;2.05;;;;;;;24.16;48.54;100402.81;4181414;28;20476;-62
2022/09/26 03:06:07;;;;;;;2.50;2.25;;;;;;;24.20;48.58;100395.44;4181884;28;20029;-64
2022/09/26 03:08:19;;;;;;;4.80;2.50;;;;;;;24.18;48.85;100375.34;4181220;28;20091;-63
2022/09/26 03:10:24;;;;;;;4.10;2.60;;;;;;;24.17;49.02;100358.91;4181644;28;20045;-65
2022/09/26 03:12:28;;;;;;;4.75;2.42;;;;;;;24.02;49.18;100329.38;4181187;28;20044;-61
2022/09/26 03:14:32;;;;;;;3.13;2.30;;;;;;;24.11;49.31;100347.03;4181198;28;20431;-62
2022/09/26 03:16:38;;;;;;;3.20;2.25;;;;;;;24.08;49.30;100330.88;4181496;28;20041;-63
2022/09/26 03:19:06;;;;;;;4.43;2.65;;;;;;;24.02;49.40;100321.00;4181185;28;20102;-61
2022/09/26 03:21:07;;;;;;;2.90;2.15;;;;;;;24.10;49.38;100325.81;4176213;28;20049;-62
2022/09/26 03:23:09;;;;;;;3.08;2.28;;;;;;;24.05;49.05;100332.38;4183276;28;20041;-61
2022/09/26 03:25:21;;;;;;;4.15;2.33;;;;;;;24.05;49.05;100325.91;4188253;28;20169;-62
2022/09/26 03:27:22;;;;;;;3.30;2.25;;;;;;;24.09;49.09;100329.75;4196530;28;20557;-62
2022/09/26 03:29:24;;;;;;;3.90;2.08;;;;;;;24.10;48.84;100339.78;4188146;28;20033;-62
2022/09/26 03:31:28;;;;;;;3.15;2.17;;;;;;;24.12;48.71;100336.69;4184308;28;20435;-62
2022/09/26 03:33:29;;;;;;;3.75;2.30;;;;;;;24.13;49.00;100333.56;4189813;28;20040;-62
2022/09/26 03:35:31;;;;;;;2.28;2.03;;;;;;;24.13;48.63;100336.34;4197455;28;20094;-62
2022/09/26 03:37:36;;;;;;;3.85;2.67;;;;;;;24.15;48.55;100338.84;4202154;28;20491;-63
2022/09/26 03:39:37;;;;;;;2.60;2.35;;;;;;;24.15;48.74;100331.28;4197477;28;20106;-62
2022/09/26 03:41:39;;;;;;;3.42;2.50;;;;;;;24.17;48.77;100334.56;4133831;28;1792346;-62
2022/09/26 03:43:43;;;;;;;4.47;2.42;;;;;;;24.16;48.48;100344.13;4197775;28;20446;-62
2022/09/26 03:45:44;;;;;;;3.20;2.22;;;;;;;24.16;48.44;100335.72;4181525;28;20091;-62
2022/09/26 03:47:46;;;;;;;3.53;2.35;;;;;;;24.15;48.22;100331.28;4181704;28;20090;-62
2022/09/26 03:49:47;;;;;;;2.95;2.47;;;;;;;24.16;48.70;100327.34;4190952;28;20044;-62
2022/09/26 03:51:48;;;;;;;3.35;2.40;;;;;;;24.16;48.26;100330.13;4197708;28;20093;-62
2022/09/26 03:53:50;;;;;;;4.15;2.10;;;;;;;24.21;48.28;100345.94;4198015;28;20086;-62
2022/09/26 03:56:00;;;;;;;4.88;2.75;;;;;;;24.11;48.04;100330.25;4197773;28;20040;-62
2022/09/26 03:58:05;;;;;;;2.92;2.40;;;;;;;24.06;48.12;100333.19;4198476;28;20032;-62
2022/09/26 04:00:07;;;;;;;4.88;2.40;;;;;;;24.07;48.29;100337.63;4198449;28;20102;-62
2022/09/26 04:02:08;;;;;;;3.55;2.30;;;;;;;24.25;48.30;100361.78;4185212;28;20217;-63
2022/09/26 04:04:10;;;;;;;3.13;2.05;;;;;;;24.08;47.93;100328.09;4181314;28;20040;-62
2022/09/26 04:06:14;;;;;;;4.88;2.25;;;;;;;24.22;48.07;100354.00;4180215;28;20052;-62
2022/09/26 04:08:15;;;;;;;9.83;2.90;;;;;;;24.26;48.09;100366.22;4181676;28;20029;-62
2022/09/26 04:10:16;;;;;;;3.75;2.20;;;;;;;24.26;47.83;100355.03;4211735;28;20039;-62
2022/09/26 04:12:19;;;;;;;3.28;2.08;;;;;;;24.27;48.07;100362.28;4214297;28;20032;-61
2022/09/26 04:14:20;;;;;;;2.72;2.08;;;;;;;24.25;48.06;100360.94;4214614;28;20044;-62
2022/09/26 04:16:22;;;;;;;3.25;2.05;;;;;;;24.29;48.03;100365.59;4215305;28;20036;-62
2022/09/26 04:18:24;;;;;;;3.75;1.88;;;;;;;24.30;48.00;100364.44;4201485;28;20044;-61
2022/09/26 04:20:26;;;;;;;3.28;2.22;;;;;;;24.31;47.90;100368.06;4181277;28;20473;-62
2022/09/26 04:22:27;;;;;;;3.75;2.00;;;;;;;24.19;47.84;100353.81;4180904;28;20554;-61
2022/09/26 04:24:28;;;;;;;2.63;2.28;;;;;;;24.17;48.14;100359.72;4182894;28;20558;-62
2022/09/26 04:26:30;;;;;;;3.00;2.10;;;;;;;24.31;47.89;100374.47;4190800;28;20525;-62
2022/09/26 04:28:34;;;;;;;5.53;2.80;;;;;;;24.32;47.70;100376.13;4209533;28;20117;-62
2022/09/26 04:30:38;;;;;;;3.03;2.08;;;;;;;24.31;47.48;100371.69;4197873;28;20044;-62
2022/09/26 04:32:40;;;;;;;2.53;2.03;;;;;;;24.32;47.83;100373.31;4198507;28;20086;-61
2022/09/26 04:34:41;;;;;;;2.30;2.10;;;;;;;24.33;47.79;100383.38;4212776;28;20080;-62
2022/09/26 04:36:42;;;;;;;3.28;2.20;;;;;;;24.33;47.65;100393.75;4180969;28;20094;-62
2022/09/26 04:38:44;;;;;;;3.20;1.98;;;;;;;24.34;47.42;100384.22;4181248;28;20049;-61
2022/09/26 04:40:45;;;;;;;2.97;2.40;;;;;;;24.34;48.11;100379.44;4180721;28;20075;-61
2022/09/26 04:42:46;;;;;;;2.83;1.80;;;;;;;24.34;47.54;100373.03;4179394;28;20053;-61
2022/09/26 04:44:48;;;;;;;3.67;2.15;;;;;;;24.34;47.67;100373.84;4182794;28;20132;-62
2022/09/26 04:46:49;;;;;;;2.30;2.10;;;;;;;24.35;47.62;100375.50;4204174;28;20044;-62
2022/09/26 04:48:51;;;;;;;2.38;2.00;;;;;;;24.18;47.58;100344.59;4197893;28;20098;-64
2022/09/26 04:50:53;;;;;;;3.05;2.10;;;;;;;24.33;47.56;100366.63;4197463;28;20074;-63
2022/09/26 04:52:54;;;;;;;2.53;2.33;;;;;;;24.35;47.38;100364.31;4186319;28;20044;-62
2022/09/26 04:54:55;;;;;;;3.25;2.00;;;;;;;24.34;47.13;100357.06;4180994;28;20094;-62
2022/09/26 04:57:00;;;;;;;2.28;1.98;;;;;;;24.36;47.40;100353.94;4181144;28;20115;-62
2022/09/26 04:59:01;;;;;;;2.83;2.30;;;;;;;24.35;47.16;100349.50;4181071;28;20274;-62
2022/09/26 05:01:07;;;;;;;4.68;2.05;;;;;;;24.33;46.97;100343.41;4181244;28;20037;-62
2022/09/26 05:03:08;;;;;;;3.45;2.17;;;;;;;24.35;47.00;100350.31;4180466;28;20041;-63
2022/09/26 05:05:12;;;;;;;2.60;2.00;;;;;;;24.35;47.12;100358.72;4180964;28;20041;-62
2022/09/26 05:07:15;;;;;;;2.17;1.98;;;;;;;24.38;47.04;100367.66;4180722;28;20094;-62
2022/09/26 05:09:21;;;;;;;4.30;2.08;;;;;;;24.32;46.85;100361.31;4181502;28;20463;-62
2022/09/26 05:11:23;;;;;;;4.78;1.70;;;;;;;24.35;46.88;100369.91;4180703;28;20037;-62
2022/09/26 05:13:25;;;;;;;2.15;1.73;;;;;;;24.38;46.89;100376.88;4181045;28;20045;-62
2022/09/26 05:15:30;;;;;;;2.75;1.95;;;;;;;24.39;46.86;100386.09;4180434;28;20041;-62
2022/09/26 05:17:31;;;;;;;2.88;2.13;;;;;;;24.37;46.74;100385.56;4180718;28;20041;-62
2022/09/26 05:19:35;;;;;;;2.75;1.75;;;;;;;24.39;46.80;100386.91;4180625;28;20044;-62
2022/09/26 05:21:37;;;;;;;3.20;2.10;;;;;;;24.40;46.64;100380.16;4187902;28;20028;-62
2022/09/26 05:28:17;;;;;;;2.65;2.25;;;;;;;24.41;46.42;100378.19;4182357;28;20098;-62
2022/09/26 05:30:18;;;;;;;2.50;1.70;;;;;;;24.39;46.51;100381.31;4180341;28;20477;-62
2022/09/26 05:32:20;;;;;;;3.78;1.67;;;;;;;24.40;46.49;100387.72;4180234;28;20037;-62
2022/09/26 05:34:23;;;;;;;3.40;1.80;;;;;;;24.38;46.71;100378.84;4179195;28;20460;-61
2022/09/26 05:36:26;;;;;;;2.03;1.83;;;;;;;24.40;46.62;100376.53;4180593;28;20075;-62
2022/09/26 05:38:30;;;;;;;2.35;1.80;;;;;;;24.40;46.44;100376.53;4180768;28;20045;-62
2022/09/26 05:42:51;;;;;;;1.98;1.77;;;;;;;24.40;46.72;100370.94;4181032;28;20115;-62
2022/09/26 05:44:55;;;;;;;4.00;1.73;;;;;;;24.40;46.44;100382.13;4180371;28;20374;-62
2022/09/26 05:46:57;;;;;;;1.88;1.67;;;;;;;24.40;46.65;100382.13;4180298;28;20045;-62
2022/09/26 05:48:58;;;;;;;3.83;1.90;;;;;;;24.40;46.43;100388.56;4180672;28;20083;-62
2022/09/26 05:51:16;;;;;;;2.58;2.13;;;;;;;24.38;46.20;100384.44;4180298;28;20037;-62
2022/09/26 05:53:20;;;;;;;2.40;1.75;;;;;;;24.37;46.37;100377.16;4180408;28;20090;-62
2022/09/26 05:55:22;;;;;;;2.05;1.60;;;;;;;24.39;46.51;100374.91;4180531;28;20045;-62
2022/09/26 05:57:24;;;;;;;2.00;1.80;;;;;;;24.42;46.36;100371.44;4180332;28;20107;-62
2022/09/26 05:59:25;;;;;;;1.77;1.67;;;;;;;24.33;46.52;100369.41;4180545;28;20435;-62
2022/09/26 06:01:26;;;;;;;1.90;1.70;;;;;;;24.40;46.10;100377.38;4180756;28;20029;-62
2022/09/26 06:03:33;;;;;;;2.00;1.80;;;;;;;24.41;46.34;100383.78;4180306;28;20111;-62
2022/09/26 06:05:34;;;;;;;1.63;1.52;;;;;;;24.41;46.32;100386.59;4182684;28;20562;-62
2022/09/26 06:07:36;;;;;;;1.63;1.38;;;;;;;24.14;46.32;100345.56;4182391;28;20554;-63
2022/09/26 06:09:37;;;;;;;1.98;1.70;;;;;;;24.41;45.95;100389.38;4183502;28;20037;-62
2022/09/26 06:11:38;;;;;;;3.30;1.95;;;;;;;24.40;46.20;100394.16;4182850;28;20431;-62
2022/09/26 06:13:47;;;;;;;1.98;1.75;;;;;;;24.39;46.12;100386.91;4186553;28;20102;-62
2022/09/26 06:15:48;;;;;;;2.67;1.88;;;;;;;24.26;46.24;100371.81;4181659;28;20474;-62
2022/09/26 06:18:00;;;;;;;2.15;1.80;;;;;;;24.40;46.39;100396.94;4183875;28;20476;-62
2022/09/26 06:20:03;;;;;;;2.33;1.80;;;;;;;24.40;46.17;100385.75;4183344;28;20091;-62
2022/09/26 06:22:04;;;;;;;1.75;1.65;;;;;;;24.40;46.27;100384.94;4207458;28;20040;-62
2022/09/26 06:24:12;;;;;;;1.80;1.70;;;;;;;24.30;46.19;100377.59;4182943;28;20361;-62
2022/09/26 06:26:20;;;;;;;2.20;1.80;;;;;;;24.41;46.05;100394.97;4182693;28;20071;-62
2022/09/26 06:28:21;;;;;;;1.90;1.70;;;;;;;24.41;46.17;100394.97;4207393;28;20040;-62
2022/09/26 06:30:23;;;;;;;1.63;1.52;;;;;;;24.28;46.28;100377.06;4201434;28;20040;-62
2022/09/26 06:32:25;;;;;;;2.80;1.83;;;;;;;24.18;45.95;100358.59;4198115;28;20048;-62
2022/09/26 06:34:26;;;;;;;3.08;2.03;;;;;;;24.30;46.11;100383.19;4191915;28;20473;-62
2022/09/26 06:36:28;;;;;;;1.83;1.63;;;;;;;24.40;46.12;100390.53;4190006;28;20036;-62
2022/09/26 06:38:29;;;;;;;2.28;1.33;;;;;;;24.41;46.00;100392.19;4191733;28;20057;-62
2022/09/26 06:40:32;;;;;;;3.63;1.65;;;;;;;24.34;45.80;100390.63;4192812;28;20089;-62
2022/09/26 06:42:36;;;;;;;1.67;1.35;;;;;;;24.39;46.13;100386.91;4198775;28;20044;-62
2022/09/26 06:44:40;;;;;;;2.05;1.75;;;;;;;24.34;45.91;100385.03;4193630;28;20483;-62
2022/09/26 06:46:42;;;;;;;2.22;1.48;;;;;;;24.27;46.08;100379.03;4199570;28;20083;-62
2022/09/26 06:48:43;;;;;;;4.18;1.73;;;;;;;24.40;46.18;100394.16;4192593;28;20109;-62
2022/09/26 06:50:51;;;;;;;2.53;1.55;;;;;;;24.41;45.88;100394.97;4193664;28;20492;-61
2022/09/26 06:52:52;;;;;;;1.80;1.67;;;;;;;24.41;45.93;100397.78;4190906;28;20037;-62
2022/09/26 06:54:54;;;;;;;1.90;1.67;;;;;;;24.38;45.85;100395.63;4182272;28;20087;-62
2022/09/26 06:56:58;;;;;;;3.33;1.40;;;;;;;24.37;45.95;100388.34;4182808;28;20122;-62
2022/09/26 06:58:59;;;;;;;3.60;1.87;;;;;;;24.41;46.02;100392.19;4185469;28;20040;-62
2022/09/26 07:01:01;;;;;;;2.53;1.65;;;;;;;24.17;46.04;100356.13;4197231;28;20102;-62
2022/09/26 07:03:07;;;;;;;2.05;1.85;;;;;;;24.28;45.81;100380.72;4198970;28;20048;-62
2022/09/26 07:05:14;;;;;;;1.60;1.50;;;;;;;24.39;45.93;100391.69;4191518;28;20089;-62
2022/09/26 07:07:17;;;;;;;1.45;1.35;;;;;;;24.40;45.85;100394.16;4193585;28;20037;-62
2022/09/26 07:09:19;;;;;;;2.20;1.70;;;;;;;24.41;46.05;100394.97;4194649;28;20142;-62
2022/09/26 07:11:21;;;;;;;1.70;1.60;;;;;;;24.37;46.16;100385.56;4182092;28;20087;-62
2022/09/26 07:13:22;;;;;;;1.67;1.58;;;;;;;24.34;45.93;100379.44;4188871;28;20048;-62
2022/09/26 07:15:26;;;;;;;2.00;1.50;;;;;;;24.39;45.86;100386.91;4197393;28;20049;-62
2022/09/26 07:17:27;;;;;;;2.35;1.65;;;;;;;24.38;45.81;100379.66;4197156;28;20117;-62
2022/09/26 07:19:29;;;;;;;1.60;1.50;;;;;;;24.40;46.08;100387.72;4188308;28;20052;-62
2022/09/26 07:21:30;;;;;;;1.92;1.70;;;;;;;24.38;45.78;100379.66;4197248;28;20086;-62
2022/09/26 07:23:31;;;;;;;1.85;1.65;;;;;;;24.39;45.99;100375.72;4181567;28;20057;-62
2022/09/26 07:25:33;;;;;;;1.70;1.60;;;;;;;24.38;45.92;100373.25;4181906;28;20052;-62
2022/09/26 07:27:34;;;;;;;1.67;1.48;;;;;;;24.24;45.98;100356.50;4189750;28;20369;-61
2022/09/26 07:29:36;;;;;;;2.58;1.83;;;;;;;24.38;45.78;100378.84;4197391;28;20118;-61
2022/09/26 07:31:37;;;;;;;1.52;1.40;;;;;;;24.35;45.83;100369.06;4197314;28;20036;-63
2022/09/26 07:33:39;;;;;;;1.58;1.48;;;;;;;24.35;45.80;100369.91;4197253;28;20040;-61
2022/09/26 07:35:43;;;;;;;1.60;1.50;;;;;;;24.38;45.66;100367.66;4181810;28;20032;-63
2022/09/26 07:37:50;;;;;;;1.58;1.48;;;;;;;24.17;45.81;100333.75;4181765;28;20365;-63
2022/09/26 07:39:52;;;;;;;1.85;1.60;;;;;;;24.38;45.91;100368.50;4181769;28;20459;-63
2022/09/26 07:41:53;;;;;;;1.90;1.70;;;;;;;24.39;45.74;100380.50;4189883;28;20114;-65
2022/09/26 07:43:55;;;;;;;1.60;1.50;;;;;;;24.38;45.74;100371.28;4188007;28;20094;-62
2022/09/26 07:50:38;;;;;;;2.20;1.77;;;;;;;24.39;45.78;100366.50;4187591;28;20099;-61
2022/09/26 07:52:41;;;;;;;1.83;1.60;;;;;;;24.40;45.62;100376.53;4180885;28;20098;-61
2022/09/26 07:54:42;;;;;;;1.73;1.25;;;;;;;24.34;45.54;100373.03;4196921;28;20118;-62
2022/09/26 07:56:44;;;;;;;2.28;1.50;;;;;;;24.38;45.93;100381.66;4198247;28;20103;-62
2022/09/26 07:58:45;;;;;;;1.50;1.40;;;;;;;24.38;45.82;100381.66;4196673;28;20040;-61
2022/09/26 08:00:50;;;;;;;1.95;1.50;;;;;;;24.37;45.65;100388.34;4196220;28;20036;-62
2022/09/26 08:02:51;;;;;;;1.67;1.55;;;;;;;24.34;45.50;100384.22;4196270;28;20044;-61
2022/09/26 08:04:59;;;;;;;2.20;1.65;;;;;;;24.37;45.79;100389.19;4189178;28;20037;-62
2022/09/26 08:07:00;;;;;;;1.95;1.70;;;;;;;24.37;45.82;100374.38;4185984;28;20044;-62
2022/09/26 08:09:01;;;;;;;1.67;1.48;;;;;;;24.36;45.61;100381.91;4195109;28;20032;-61
2022/09/26 08:11:04;;;;;;;1.58;1.40;;;;;;;24.23;45.56;100366.84;4196986;28;20472;-62
2022/09/26 08:13:11;;;;;;;3.17;1.65;;;;;;;24.37;45.80;100382.75;4195682;28;20102;-62
2022/09/26 08:15:12;;;;;;;2.00;1.63;;;;;;;24.37;45.70;100382.75;4187320;28;20036;-62
2022/09/26 08:17:15;;;;;;;1.73;1.45;;;;;;;24.34;45.66;100378.63;4184553;28;20098;-62
2022/09/26 08:19:17;;;;;;;1.70;1.38;;;;;;;24.37;45.47;100389.19;4194485;28;20036;-62
2022/09/26 08:21:19;;;;;;;2.50;1.67;;;;;;;24.36;45.39;100393.09;4196114;28;20048;-62
2022/09/26 08:23:21;;;;;;;2.00;1.60;;;;;;;24.36;45.59;100398.69;4194046;28;20102;-62
2022/09/26 08:25:22;;;;;;;1.88;1.58;;;;;;;24.28;45.55;100385.47;4202271;28;20032;-61
2022/09/26 08:27:24;;;;;;;1.70;1.58;;;;;;;24.38;45.60;100401.22;4196572;28;20139;-62
2022/09/26 08:29:25;;;;;;;1.60;1.50;;;;;;;24.36;45.54;100409.88;4200236;28;20032;-62
2022/09/26 08:31:27;;;;;;;1.23;1.13;;;;;;;24.35;45.40;100408.22;4182355;28;20041;-62
2022/09/26 08:33:29;;;;;;;1.20;1.10;;;;;;;24.37;45.29;100413.53;4194417;28;20056;-62
2022/09/26 08:35:35;;;;;;;3.17;1.30;;;;;;;24.38;45.33;100406.81;4185910;28;20033;-62
2022/09/26 08:37:39;;;;;;;1.52;1.30;;;;;;;24.38;45.61;100418.00;4185924;28;20052;-62
2022/09/26 08:39:40;;;;;;;3.92;1.52;;;;;;;24.35;45.54;100414.66;4188264;28;20036;-62
2022/09/26 08:42:22;;;;;;;1.60;1.50;;;;;;;24.32;45.50;100412.47;4196811;28;20581;-62
2022/09/26 08:44:55;;;;;;;1.40;1.30;;;;;;;24.35;45.56;100416.63;4185044;28;20052;-62
2022/09/26 08:47:28;;;;;;;1.85;1.40;;;;;;;24.37;45.47;100416.31;4181245;28;20053;-61
2022/09/26 08:50:06;;;;;;;1.45;1.27;;;;;;;24.34;45.49;100413.00;4181232;28;20037;-61
2022/09/26 08:52:23;;;;;;;1.40;1.30;;;;;;;24.35;45.24;100409.06;4180482;28;20099;-61
2022/09/26 08:54:38;;;;;;;1.50;1.40;;;;;;;24.37;45.34;100421.91;4181111;28;20094;-62
2022/09/26 08:56:45;;;;;;;1.50;1.40;;;;;;;24.37;45.38;100421.91;4194031;28;20431;-62
2022/09/26 08:58:51;;;;;;;2.00;1.70;;;;;;;24.07;45.27;100376.75;4197485;28;20082;-61
2022/09/26 09:00:59;;;;;;;1.42;1.30;;;;;;;24.35;45.26;100425.84;4197656;28;20094;-62
2022/09/26 09:03:26;;;;;;;2.08;1.50;;;;;;;24.37;45.32;100427.50;4197055;28;20094;-61
2022/09/26 09:05:31;;;;;;;1.48;1.27;;;;;;;24.37;45.32;100430.31;4193494;28;20036;-62
2022/09/26 09:07:33;;;;;;;1.77;1.60;;;;;;;24.37;45.55;100433.09;4189756;28;20107;-62
2022/09/26 09:09:34;;;;;;;1.65;1.42;;;;;;;24.37;45.42;100433.09;4180905;28;20550;-62
2022/09/26 09:12:00;;;;;;;1.45;1.35;;;;;;;24.32;45.36;100420.84;4180863;28;20091;-61
2022/09/26 09:14:21;;;;;;;1.48;1.35;;;;;;;24.34;45.38;100414.97;4180978;28;20040;-61
2022/09/26 09:16:31;;;;;;;1.77;1.40;;;;;;;24.34;45.34;100424.19;4180974;28;20037;-61
2022/09/26 09:18:56;;;;;;;1.45;1.30;;;;;;;24.34;45.46;100418.59;4180942;28;20118;-62
2022/09/26 09:21:25;;;;;;;1.52;1.42;;;;;;;24.33;45.46;100410.53;4180785;28;20041;-61
2022/09/26 09:24:11;;;;;;;1.27;1.17;;;;;;;24.28;45.49;100417.06;4180746;28;20071;-61
2022/09/26 09:26:41;;;;;;;3.42;1.83;;;;;;;24.35;45.36;100425.00;4172548;28;20078;-63
2022/09/26 09:29:12;;;;;;;1.58;1.40;;;;;;;24.35;45.40;100442.59;4179986;28;20037;-62
2022/09/26 09:31:15;;;;;;;2.53;1.65;;;;;;;24.37;45.09;100449.88;4150015;28;20041;-61
2022/09/26 09:33:35;;;;;;;1.40;1.30;;;;;;;24.33;45.27;100456.09;4184822;28;20481;-61
2022/09/26 09:35:48;;;;;;;1.50;1.40;;;;;;;24.35;45.41;100452.97;4194851;28;20102;-62
2022/09/26 09:37:52;;;;;;;1.83;1.30;;;;;;;24.34;45.41;100452.16;4197371;28;20049;-62
2022/09/26 09:39:55;;;;;;;1.33;1.23;;;;;;;24.33;45.59;100450.50;4200205;28;20089;-62
2022/09/26 09:42:03;;;;;;;1.85;1.40;;;;;;;24.08;45.28;100407.19;4194019;28;20103;-61
2022/09/26 09:44:31;;;;;;;1.60;1.50;;;;;;;24.33;45.40;100455.28;4183934;28;20041;-62
2022/09/26 09:46:37;;;;;;;2.97;1.40;;;;;;;24.23;45.54;100439.53;4184006;28;20041;-62
2022/09/26 09:48:38;;;;;;;1.58;1.48;;;;;;;24.22;45.22;100448.25;4183583;28;20480;-62
2022/09/26 09:51:00;;;;;;;1.50;1.40;;;;;;;24.33;45.43;100467.28;4187985;28;20040;-62
2022/09/26 09:53:23;;;;;;;1.58;1.30;;;;;;;24.31;45.32;100463.13;4200266;28;20095;-62
2022/09/26 09:56:05;;;;;;;1.45;1.35;;;;;;;24.31;45.33;100474.31;4200112;28;20049;-62
2022/09/26 09:58:37;;;;;;;2.33;1.45;;;;;;;24.25;45.25;100456.84;4191895;28;20075;-62
2022/09/26 10:00:58;;;;;;;1.42;1.30;;;;;;;24.33;45.21;100472.06;4183637;28;20098;-62
2022/09/26 10:03:38;;;;;;;1.50;1.40;;;;;;;24.27;45.38;100471.31;4183273;28;20037;-62